sensor_id;sensor_type;location;lat;lon;timestamp;temperature;humidity
82183;DHT22;71763;52.220;13.000;2023-11-18T00:01:43;5.40;65.70
82183;DHT22;71763;52.220;13.000;2023-11-18T00:04:09;5.40;65.70
82183;DHT22;71763;52.220;13.000;2023-11-18T00:06:41;5.40;65.70
82183;DHT22;71763;52.220;13.000;2023-11-18T00:09:07;5.40;65.70
82183;DHT22;71763;52.220;13.000;2023-11-18T00:11:32;5.40;65.70
82183;DHT22;71763;52.220;13.000;2023-11-18T00:13:58;5.40;65.70
82183;DHT22;71763;52.220;13.000;2023-11-18T00:16:24;5.40;65.60
82183;DHT22;71763;52.220;13.000;2023-11-18T00:18:52;5.40;65.70
82183;DHT22;71763;52.220;13.000;2023-11-18T00:21:18;5.40;65.70
82183;DHT22;71763;52.220;13.000;2023-11-18T00:23:44;5.40;65.70
82183;DHT22;71763;52.220;13.000;2023-11-18T00:26:10;5.40;65.70
82183;DHT22;71763;52.220;13.000;2023-11-18T00:28:36;5.40;65.70
82183;DHT22;71763;52.220;13.000;2023-11-18T00:31:02;5.40;65.70
82183;DHT22;71763;52.220;13.000;2023-11-18T00:33:29;5.40;65.70
82183;DHT22;71763;52.220;13.000;2023-11-18T00:35:55;5.50;65.70
82183;DHT22;71763;52.220;13.000;2023-11-18T00:38:20;5.60;65.80
82183;DHT22;71763;52.220;13.000;2023-11-18T00:40:46;5.40;65.60
82183;DHT22;71763;52.220;13.000;2023-11-18T00:43:11;5.40;65.60
82183;DHT22;71763;52.220;13.000;2023-11-18T00:45:37;5.40;65.70
82183;DHT22;71763;52.220;13.000;2023-11-18T00:48:02;5.40;65.70
82183;DHT22;71763;52.220;13.000;2023-11-18T00:50:30;5.40;65.70
82183;DHT22;71763;52.220;13.000;2023-11-18T00:52:56;5.40;65.70
82183;DHT22;71763;52.220;13.000;2023-11-18T00:55:22;5.40;65.90
82183;DHT22;71763;52.220;13.000;2023-11-18T00:57:47;5.30;65.90
82183;DHT22;71763;52.220;13.000;2023-11-18T01:00:14;5.30;66.00
82183;DHT22;71763;52.220;13.000;2023-11-18T01:02:42;5.30;66.60
82183;DHT22;71763;52.220;13.000;2023-11-18T01:05:08;5.30;66.00
82183;DHT22;71763;52.220;13.000;2023-11-18T01:07:35;5.30;66.00
82183;DHT22;71763;52.220;13.000;2023-11-18T01:10:01;5.30;66.00
82183;DHT22;71763;52.220;13.000;2023-11-18T01:12:27;5.30;66.00
82183;DHT22;71763;52.220;13.000;2023-11-18T01:14:52;5.30;66.00
82183;DHT22;71763;52.220;13.000;2023-11-18T01:17:17;5.30;65.90
82183;DHT22;71763;52.220;13.000;2023-11-18T01:19:43;5.30;65.90
82183;DHT22;71763;52.220;13.000;2023-11-18T01:22:09;5.30;65.90
82183;DHT22;71763;52.220;13.000;2023-11-18T01:24:37;5.30;65.90
82183;DHT22;71763;52.220;13.000;2023-11-18T01:27:02;5.30;65.90
82183;DHT22;71763;52.220;13.000;2023-11-18T01:29:28;5.30;65.80
82183;DHT22;71763;52.220;13.000;2023-11-18T01:31:54;5.30;65.80
82183;DHT22;71763;52.220;13.000;2023-11-18T01:34:21;5.30;65.90
82183;DHT22;71763;52.220;13.000;2023-11-18T01:36:47;5.30;65.90
82183;DHT22;71763;52.220;13.000;2023-11-18T01:39:15;5.30;65.90
82183;DHT22;71763;52.220;13.000;2023-11-18T01:41:41;5.30;65.90
82183;DHT22;71763;52.220;13.000;2023-11-18T01:44:06;5.30;65.90
82183;DHT22;71763;52.220;13.000;2023-11-18T01:46:33;5.30;65.90
82183;DHT22;71763;52.220;13.000;2023-11-18T01:49:02;5.30;65.90
82183;DHT22;71763;52.220;13.000;2023-11-18T01:51:29;5.30;65.90
82183;DHT22;71763;52.220;13.000;2023-11-18T01:53:55;5.30;65.90
82183;DHT22;71763;52.220;13.000;2023-11-18T01:56:21;5.30;66.00
82183;DHT22;71763;52.220;13.000;2023-11-18T01:58:51;5.20;65.90
82183;DHT22;71763;52.220;13.000;2023-11-18T02:01:17;5.20;65.90
82183;DHT22;71763;52.220;13.000;2023-11-18T02:03:45;5.20;66.00
82183;DHT22;71763;52.220;13.000;2023-11-18T02:06:13;5.30;66.00
82183;DHT22;71763;52.220;13.000;2023-11-18T02:08:39;5.30;66.10
82183;DHT22;71763;52.220;13.000;2023-11-18T02:11:34;5.30;66.00
82183;DHT22;71763;52.220;13.000;2023-11-18T02:14:11;5.30;66.00
82183;DHT22;71763;52.220;13.000;2023-11-18T02:16:38;5.30;66.00
82183;DHT22;71763;52.220;13.000;2023-11-18T02:19:15;5.30;66.00
82183;DHT22;71763;52.220;13.000;2023-11-18T02:21:42;5.30;65.90
82183;DHT22;71763;52.220;13.000;2023-11-18T02:24:09;5.30;65.90
82183;DHT22;71763;52.220;13.000;2023-11-18T02:26:35;5.30;66.00
82183;DHT22;71763;52.220;13.000;2023-11-18T02:29:00;5.30;66.00
82183;DHT22;71763;52.220;13.000;2023-11-18T02:31:33;5.30;66.00
82183;DHT22;71763;52.220;13.000;2023-11-18T02:34:04;5.30;66.00
82183;DHT22;71763;52.220;13.000;2023-11-18T02:36:36;5.30;66.00
82183;DHT22;71763;52.220;13.000;2023-11-18T02:39:05;5.30;66.00
82183;DHT22;71763;52.220;13.000;2023-11-18T02:41:37;5.30;66.00
82183;DHT22;71763;52.220;13.000;2023-11-18T02:44:04;5.30;66.00
82183;DHT22;71763;52.220;13.000;2023-11-18T02:46:34;5.30;66.00
82183;DHT22;71763;52.220;13.000;2023-11-18T02:49:01;5.30;66.00
82183;DHT22;71763;52.220;13.000;2023-11-18T02:51:27;5.30;66.00
82183;DHT22;71763;52.220;13.000;2023-11-18T02:53:53;5.30;66.00
82183;DHT22;71763;52.220;13.000;2023-11-18T02:56:20;5.30;66.10
82183;DHT22;71763;52.220;13.000;2023-11-18T02:58:46;5.30;66.10
82183;DHT22;71763;52.220;13.000;2023-11-18T03:01:11;5.30;66.10
82183;DHT22;71763;52.220;13.000;2023-11-18T03:03:37;5.30;66.20
82183;DHT22;71763;52.220;13.000;2023-11-18T03:06:02;5.20;66.00
82183;DHT22;71763;52.220;13.000;2023-11-18T03:08:28;5.20;66.10
82183;DHT22;71763;52.220;13.000;2023-11-18T03:10:55;5.20;66.20
82183;DHT22;71763;52.220;13.000;2023-11-18T03:13:20;5.20;66.20
82183;DHT22;71763;52.220;13.000;2023-11-18T03:15:46;5.20;66.10
82183;DHT22;71763;52.220;13.000;2023-11-18T03:18:14;5.20;66.20
82183;DHT22;71763;52.220;13.000;2023-11-18T03:20:40;5.20;66.20
82183;DHT22;71763;52.220;13.000;2023-11-18T03:23:06;5.20;66.20
82183;DHT22;71763;52.220;13.000;2023-11-18T03:25:34;5.20;66.30
82183;DHT22;71763;52.220;13.000;2023-11-18T03:28:00;5.20;66.20
82183;DHT22;71763;52.220;13.000;2023-11-18T03:30:26;5.20;66.20
82183;DHT22;71763;52.220;13.000;2023-11-18T03:32:51;5.20;66.20
82183;DHT22;71763;52.220;13.000;2023-11-18T03:35:17;5.20;66.20
82183;DHT22;71763;52.220;13.000;2023-11-18T03:37:42;5.20;66.20
82183;DHT22;71763;52.220;13.000;2023-11-18T03:40:12;5.20;66.20
82183;DHT22;71763;52.220;13.000;2023-11-18T03:42:38;5.20;66.10
82183;DHT22;71763;52.220;13.000;2023-11-18T03:45:05;5.20;66.10
82183;DHT22;71763;52.220;13.000;2023-11-18T03:47:31;5.20;66.10
82183;DHT22;71763;52.220;13.000;2023-11-18T03:49:57;5.20;66.10
82183;DHT22;71763;52.220;13.000;2023-11-18T03:52:23;5.20;66.00
82183;DHT22;71763;52.220;13.000;2023-11-18T03:54:48;5.30;66.10
82183;DHT22;71763;52.220;13.000;2023-11-18T03:57:14;5.20;66.00
82183;DHT22;71763;52.220;13.000;2023-11-18T03:59:40;5.30;66.10
82183;DHT22;71763;52.220;13.000;2023-11-18T04:02:08;5.30;66.20
82183;DHT22;71763;52.220;13.000;2023-11-18T04:04:39;5.30;66.10
82183;DHT22;71763;52.220;13.000;2023-11-18T04:07:04;5.30;66.00
82183;DHT22;71763;52.220;13.000;2023-11-18T04:09:30;5.20;66.10
82183;DHT22;71763;52.220;13.000;2023-11-18T04:11:56;5.20;66.10
82183;DHT22;71763;52.220;13.000;2023-11-18T04:14:22;5.20;66.20
82183;DHT22;71763;52.220;13.000;2023-11-18T04:16:48;5.20;66.10
82183;DHT22;71763;52.220;13.000;2023-11-18T04:19:14;5.20;66.10
82183;DHT22;71763;52.220;13.000;2023-11-18T04:21:40;5.20;66.10
82183;DHT22;71763;52.220;13.000;2023-11-18T04:24:06;5.20;66.20
82183;DHT22;71763;52.220;13.000;2023-11-18T04:26:32;5.20;66.10
82183;DHT22;71763;52.220;13.000;2023-11-18T04:28:58;5.20;66.10
82183;DHT22;71763;52.220;13.000;2023-11-18T04:31:24;5.10;66.10
82183;DHT22;71763;52.220;13.000;2023-11-18T04:33:49;5.10;66.10
82183;DHT22;71763;52.220;13.000;2023-11-18T04:36:16;5.10;66.10
82183;DHT22;71763;52.220;13.000;2023-11-18T04:38:42;5.10;66.10
82183;DHT22;71763;52.220;13.000;2023-11-18T04:41:09;5.00;66.10
82183;DHT22;71763;52.220;13.000;2023-11-18T04:43:35;5.00;66.10
82183;DHT22;71763;52.220;13.000;2023-11-18T04:46:00;5.00;66.10
82183;DHT22;71763;52.220;13.000;2023-11-18T04:48:26;5.00;66.10
82183;DHT22;71763;52.220;13.000;2023-11-18T04:50:51;5.00;66.20
82183;DHT22;71763;52.220;13.000;2023-11-18T04:53:17;4.90;66.20
82183;DHT22;71763;52.220;13.000;2023-11-18T04:55:42;4.90;66.20
82183;DHT22;71763;52.220;13.000;2023-11-18T04:58:08;4.90;66.40
82183;DHT22;71763;52.220;13.000;2023-11-18T05:00:37;4.90;66.30
82183;DHT22;71763;52.220;13.000;2023-11-18T05:03:07;4.90;66.30
82183;DHT22;71763;52.220;13.000;2023-11-18T05:05:37;4.90;66.30
82183;DHT22;71763;52.220;13.000;2023-11-18T05:08:07;4.90;66.20
82183;DHT22;71763;52.220;13.000;2023-11-18T05:10:33;4.90;66.40
82183;DHT22;71763;52.220;13.000;2023-11-18T05:13:00;4.80;66.40
82183;DHT22;71763;52.220;13.000;2023-11-18T05:15:26;4.90;66.40
82183;DHT22;71763;52.220;13.000;2023-11-18T05:17:52;4.90;66.40
82183;DHT22;71763;52.220;13.000;2023-11-18T05:20:19;4.90;66.40
82183;DHT22;71763;52.220;13.000;2023-11-18T05:22:44;4.90;66.40
82183;DHT22;71763;52.220;13.000;2023-11-18T05:25:10;4.90;66.30
82183;DHT22;71763;52.220;13.000;2023-11-18T05:27:36;4.90;66.40
82183;DHT22;71763;52.220;13.000;2023-11-18T05:30:02;4.90;66.30
82183;DHT22;71763;52.220;13.000;2023-11-18T05:32:28;4.90;66.30
82183;DHT22;71763;52.220;13.000;2023-11-18T05:34:54;4.90;66.30
82183;DHT22;71763;52.220;13.000;2023-11-18T05:37:21;4.90;66.30
82183;DHT22;71763;52.220;13.000;2023-11-18T05:39:48;4.90;66.20
82183;DHT22;71763;52.220;13.000;2023-11-18T05:42:18;5.00;66.30
82183;DHT22;71763;52.220;13.000;2023-11-18T05:44:44;4.90;66.30
82183;DHT22;71763;52.220;13.000;2023-11-18T05:47:10;5.00;66.30
82183;DHT22;71763;52.220;13.000;2023-11-18T05:49:38;5.00;66.40
82183;DHT22;71763;52.220;13.000;2023-11-18T05:52:05;5.00;66.30
82183;DHT22;71763;52.220;13.000;2023-11-18T05:54:32;5.00;66.30
82183;DHT22;71763;52.220;13.000;2023-11-18T05:56:57;5.00;66.40
82183;DHT22;71763;52.220;13.000;2023-11-18T05:59:25;5.00;66.30
82183;DHT22;71763;52.220;13.000;2023-11-18T06:01:52;5.00;66.40
82183;DHT22;71763;52.220;13.000;2023-11-18T06:04:17;5.00;66.40
82183;DHT22;71763;52.220;13.000;2023-11-18T06:06:43;5.00;66.40
82183;DHT22;71763;52.220;13.000;2023-11-18T06:09:08;5.00;66.40
82183;DHT22;71763;52.220;13.000;2023-11-18T06:11:40;5.00;66.40
82183;DHT22;71763;52.220;13.000;2023-11-18T06:14:06;5.00;66.40
82183;DHT22;71763;52.220;13.000;2023-11-18T06:16:34;5.00;66.50
82183;DHT22;71763;52.220;13.000;2023-11-18T06:19:01;5.00;66.50
82183;DHT22;71763;52.220;13.000;2023-11-18T06:21:30;5.00;66.50
82183;DHT22;71763;52.220;13.000;2023-11-18T06:23:57;5.00;66.50
82183;DHT22;71763;52.220;13.000;2023-11-18T06:26:24;4.90;66.40
82183;DHT22;71763;52.220;13.000;2023-11-18T06:28:52;4.90;66.40
82183;DHT22;71763;52.220;13.000;2023-11-18T06:31:19;4.90;66.40
82183;DHT22;71763;52.220;13.000;2023-11-18T06:33:46;4.90;66.40
82183;DHT22;71763;52.220;13.000;2023-11-18T06:38:43;4.80;66.40
82183;DHT22;71763;52.220;13.000;2023-11-18T06:41:11;4.80;66.40
82183;DHT22;71763;52.220;13.000;2023-11-18T06:43:39;4.80;66.40
82183;DHT22;71763;52.220;13.000;2023-11-18T06:46:32;4.80;66.50
82183;DHT22;71763;52.220;13.000;2023-11-18T06:49:03;4.80;66.40
82183;DHT22;71763;52.220;13.000;2023-11-18T06:51:40;4.80;66.40
82183;DHT22;71763;52.220;13.000;2023-11-18T06:54:06;4.80;66.30
82183;DHT22;71763;52.220;13.000;2023-11-18T06:56:37;4.80;66.50
82183;DHT22;71763;52.220;13.000;2023-11-18T06:59:06;4.80;66.50
82183;DHT22;71763;52.220;13.000;2023-11-18T07:01:33;4.80;66.50
82183;DHT22;71763;52.220;13.000;2023-11-18T07:03:58;4.80;66.50
82183;DHT22;71763;52.220;13.000;2023-11-18T07:06:24;4.80;66.40
82183;DHT22;71763;52.220;13.000;2023-11-18T07:08:52;4.80;66.40
82183;DHT22;71763;52.220;13.000;2023-11-18T07:11:18;4.80;66.50
82183;DHT22;71763;52.220;13.000;2023-11-18T07:13:44;4.80;66.40
82183;DHT22;71763;52.220;13.000;2023-11-18T07:16:10;4.80;66.50
82183;DHT22;71763;52.220;13.000;2023-11-18T07:18:37;4.70;66.40
82183;DHT22;71763;52.220;13.000;2023-11-18T07:21:04;4.80;66.50
82183;DHT22;71763;52.220;13.000;2023-11-18T07:23:31;4.80;66.50
82183;DHT22;71763;52.220;13.000;2023-11-18T07:25:56;4.80;66.50
82183;DHT22;71763;52.220;13.000;2023-11-18T07:28:23;4.70;66.30
82183;DHT22;71763;52.220;13.000;2023-11-18T07:30:48;4.80;66.50
82183;DHT22;71763;52.220;13.000;2023-11-18T07:33:14;4.80;66.40
82183;DHT22;71763;52.220;13.000;2023-11-18T07:35:41;4.80;66.30
82183;DHT22;71763;52.220;13.000;2023-11-18T07:38:07;4.80;66.30
82183;DHT22;71763;52.220;13.000;2023-11-18T07:40:33;4.80;66.30
82183;DHT22;71763;52.220;13.000;2023-11-18T07:42:59;4.90;66.40
82183;DHT22;71763;52.220;13.000;2023-11-18T07:45:27;4.80;66.30
82183;DHT22;71763;52.220;13.000;2023-11-18T07:47:54;4.80;66.30
82183;DHT22;71763;52.220;13.000;2023-11-18T07:50:20;4.80;66.20
82183;DHT22;71763;52.220;13.000;2023-11-18T07:52:47;4.80;66.30
82183;DHT22;71763;52.220;13.000;2023-11-18T07:55:14;4.80;66.30
82183;DHT22;71763;52.220;13.000;2023-11-18T07:57:40;4.80;66.30
82183;DHT22;71763;52.220;13.000;2023-11-18T08:00:07;5.00;66.50
82183;DHT22;71763;52.220;13.000;2023-11-18T08:02:36;4.80;66.30
82183;DHT22;71763;52.220;13.000;2023-11-18T08:05:05;4.90;66.20
82183;DHT22;71763;52.220;13.000;2023-11-18T08:07:35;5.00;66.20
82183;DHT22;71763;52.220;13.000;2023-11-18T08:10:04;5.00;66.20
82183;DHT22;71763;52.220;13.000;2023-11-18T08:12:33;5.10;66.10
82183;DHT22;71763;52.220;13.000;2023-11-18T08:15:00;5.20;66.00
82183;DHT22;71763;52.220;13.000;2023-11-18T08:17:26;5.30;66.10
82183;DHT22;71763;52.220;13.000;2023-11-18T08:19:52;5.30;65.90
82183;DHT22;71763;52.220;13.000;2023-11-18T08:22:18;5.40;65.80
82183;DHT22;71763;52.220;13.000;2023-11-18T08:24:44;5.50;65.70
82183;DHT22;71763;52.220;13.000;2023-11-18T08:27:10;5.50;65.50
82183;DHT22;71763;52.220;13.000;2023-11-18T08:29:36;5.60;65.60
82183;DHT22;71763;52.220;13.000;2023-11-18T08:32:04;5.70;65.40
82183;DHT22;71763;52.220;13.000;2023-11-18T08:34:30;5.80;65.30
82183;DHT22;71763;52.220;13.000;2023-11-18T08:36:55;6.00;65.20
82183;DHT22;71763;52.220;13.000;2023-11-18T08:39:22;6.10;64.80
82183;DHT22;71763;52.220;13.000;2023-11-18T08:41:50;6.20;64.70
82183;DHT22;71763;52.220;13.000;2023-11-18T08:44:16;6.20;64.60
82183;DHT22;71763;52.220;13.000;2023-11-18T08:46:43;6.40;64.60
82183;DHT22;71763;52.220;13.000;2023-11-18T08:49:09;6.50;64.40
82183;DHT22;71763;52.220;13.000;2023-11-18T08:51:37;6.50;64.30
82183;DHT22;71763;52.220;13.000;2023-11-18T08:54:04;6.60;64.50
82183;DHT22;71763;52.220;13.000;2023-11-18T08:56:50;6.60;64.60
82183;DHT22;71763;52.220;13.000;2023-11-18T08:59:21;6.60;64.70
82183;DHT22;71763;52.220;13.000;2023-11-18T09:01:53;6.50;64.80
82183;DHT22;71763;52.220;13.000;2023-11-18T09:04:25;6.40;65.10
82183;DHT22;71763;52.220;13.000;2023-11-18T09:06:51;6.40;65.40
82183;DHT22;71763;52.220;13.000;2023-11-18T09:09:22;6.40;65.60
82183;DHT22;71763;52.220;13.000;2023-11-18T09:11:56;6.60;65.50
82183;DHT22;71763;52.220;13.000;2023-11-18T09:14:24;6.80;64.60
82183;DHT22;71763;52.220;13.000;2023-11-18T09:16:53;7.40;63.40
82183;DHT22;71763;52.220;13.000;2023-11-18T09:19:24;9.20;62.10
82183;DHT22;71763;52.220;13.000;2023-11-18T09:21:51;10.70;54.60
82183;DHT22;71763;52.220;13.000;2023-11-18T09:24:17;10.90;53.30
82183;DHT22;71763;52.220;13.000;2023-11-18T09:26:45;10.80;53.70
82183;DHT22;71763;52.220;13.000;2023-11-18T09:29:13;10.80;54.10
82183;DHT22;71763;52.220;13.000;2023-11-18T09:31:49;10.60;55.00
82183;DHT22;71763;52.220;13.000;2023-11-18T09:34:15;10.50;56.20
82183;DHT22;71763;52.220;13.000;2023-11-18T09:36:43;11.00;56.10
82183;DHT22;71763;52.220;13.000;2023-11-18T09:39:09;12.40;54.00
82183;DHT22;71763;52.220;13.000;2023-11-18T09:41:35;14.30;50.40
82183;DHT22;71763;52.220;13.000;2023-11-18T09:44:00;15.30;48.10
82183;DHT22;71763;52.220;13.000;2023-11-18T09:46:28;16.00;47.20
82183;DHT22;71763;52.220;13.000;2023-11-18T09:51:42;15.20;48.70
82183;DHT22;71763;52.220;13.000;2023-11-18T09:54:39;14.50;50.60
82183;DHT22;71763;52.220;13.000;2023-11-18T10:02:39;15.20;50.60
82183;DHT22;71763;52.220;13.000;2023-11-18T10:05:06;14.50;50.60
82183;DHT22;71763;52.220;13.000;2023-11-18T10:07:41;13.50;52.80
82183;DHT22;71763;52.220;13.000;2023-11-18T10:10:08;12.60;55.10
82183;DHT22;71763;52.220;13.000;2023-11-18T10:12:44;11.80;57.40
82183;DHT22;71763;52.220;13.000;2023-11-18T10:15:13;11.20;58.50
82183;DHT22;71763;52.220;13.000;2023-11-18T10:17:43;10.80;60.00
82183;DHT22;71763;52.220;13.000;2023-11-18T10:23:10;10.20;61.70
82183;DHT22;71763;52.220;13.000;2023-11-18T10:25:49;10.00;62.00
82183;DHT22;71763;52.220;13.000;2023-11-18T10:28:29;10.00;62.20
82183;DHT22;71763;52.220;13.000;2023-11-18T10:31:03;9.90;63.10
82183;DHT22;71763;52.220;13.000;2023-11-18T10:33:37;9.90;62.90
82183;DHT22;71763;52.220;13.000;2023-11-18T10:36:04;10.10;61.80
82183;DHT22;71763;52.220;13.000;2023-11-18T10:38:31;10.40;60.90
82183;DHT22;71763;52.220;13.000;2023-11-18T10:40:58;10.50;60.30
82183;DHT22;71763;52.220;13.000;2023-11-18T10:43:27;10.50;60.00
82183;DHT22;71763;52.220;13.000;2023-11-18T10:46:24;10.50;59.90
82183;DHT22;71763;52.220;13.000;2023-11-18T10:48:51;10.40;60.10
82183;DHT22;71763;52.220;13.000;2023-11-18T10:51:18;10.40;60.20
82183;DHT22;71763;52.220;13.000;2023-11-18T10:53:52;10.60;60.00
82183;DHT22;71763;52.220;13.000;2023-11-18T10:56:27;10.70;59.80
82183;DHT22;71763;52.220;13.000;2023-11-18T10:58:58;10.70;59.50
82183;DHT22;71763;52.220;13.000;2023-11-18T11:01:30;10.60;59.80
82183;DHT22;71763;52.220;13.000;2023-11-18T11:04:00;10.60;59.80
82183;DHT22;71763;52.220;13.000;2023-11-18T11:06:30;10.60;60.00
82183;DHT22;71763;52.220;13.000;2023-11-18T11:08:57;10.60;60.00
82183;DHT22;71763;52.220;13.000;2023-11-18T11:11:32;10.60;60.20
82183;DHT22;71763;52.220;13.000;2023-11-18T11:14:03;10.70;60.00
82183;DHT22;71763;52.220;13.000;2023-11-18T11:16:42;10.90;59.60
82183;DHT22;71763;52.220;13.000;2023-11-18T11:19:31;11.10;59.30
82183;DHT22;71763;52.220;13.000;2023-11-18T11:22:07;11.10;59.10
82183;DHT22;71763;52.220;13.000;2023-11-18T11:24:51;11.20;59.50
82183;DHT22;71763;52.220;13.000;2023-11-18T11:27:25;11.10;59.00
82183;DHT22;71763;52.220;13.000;2023-11-18T11:30:14;11.20;59.00
82183;DHT22;71763;52.220;13.000;2023-11-18T11:32:58;11.30;59.00
82183;DHT22;71763;52.220;13.000;2023-11-18T11:35:33;11.20;58.90
82183;DHT22;71763;52.220;13.000;2023-11-18T11:38:03;11.20;59.00
82183;DHT22;71763;52.220;13.000;2023-11-18T11:40:37;11.10;59.40
82183;DHT22;71763;52.220;13.000;2023-11-18T11:43:05;11.10;59.50
82183;DHT22;71763;52.220;13.000;2023-11-18T11:45:33;11.10;59.40
82183;DHT22;71763;52.220;13.000;2023-11-18T11:47:59;11.20;59.40
82183;DHT22;71763;52.220;13.000;2023-11-18T11:51:24;11.20;59.30
82183;DHT22;71763;52.220;13.000;2023-11-18T11:54:09;11.10;59.50
82183;DHT22;71763;52.220;13.000;2023-11-18T11:56:47;11.10;60.20
82183;DHT22;71763;52.220;13.000;2023-11-18T11:59:54;11.10;59.60
82183;DHT22;71763;52.220;13.000;2023-11-18T12:02:25;11.10;59.60
82183;DHT22;71763;52.220;13.000;2023-11-18T12:04:55;10.90;59.70
82183;DHT22;71763;52.220;13.000;2023-11-18T12:07:25;10.80;60.50
82183;DHT22;71763;52.220;13.000;2023-11-18T12:09:59;10.70;60.20
82183;DHT22;71763;52.220;13.000;2023-11-18T12:12:26;10.50;60.30
82183;DHT22;71763;52.220;13.000;2023-11-18T12:14:59;10.30;60.50
82183;DHT22;71763;52.220;13.000;2023-11-18T12:20:42;10.00;61.10
82183;DHT22;71763;52.220;13.000;2023-11-18T12:23:19;9.80;62.10
82183;DHT22;71763;52.220;13.000;2023-11-18T12:25:48;9.60;62.40
82183;DHT22;71763;52.220;13.000;2023-11-18T12:28:20;9.40;62.70
82183;DHT22;71763;52.220;13.000;2023-11-18T12:30:47;9.20;63.10
82183;DHT22;71763;52.220;13.000;2023-11-18T12:33:22;9.10;63.10
82183;DHT22;71763;52.220;13.000;2023-11-18T12:41:01;8.70;62.80
82183;DHT22;71763;52.220;13.000;2023-11-18T12:43:49;8.60;62.70
82183;DHT22;71763;52.220;13.000;2023-11-18T12:49:14;8.30;62.90
82183;DHT22;71763;52.220;13.000;2023-11-18T12:51:42;8.20;63.10
82183;DHT22;71763;52.220;13.000;2023-11-18T12:54:10;8.10;63.10
82183;DHT22;71763;52.220;13.000;2023-11-18T12:56:38;8.00;63.20
82183;DHT22;71763;52.220;13.000;2023-11-18T12:59:09;8.00;63.30
82183;DHT22;71763;52.220;13.000;2023-11-18T13:01:38;8.00;63.30
82183;DHT22;71763;52.220;13.000;2023-11-18T13:04:07;8.00;63.00
82183;DHT22;71763;52.220;13.000;2023-11-18T13:06:34;8.10;62.70
82183;DHT22;71763;52.220;13.000;2023-11-18T13:09:00;8.10;62.30
82183;DHT22;71763;52.220;13.000;2023-11-18T13:11:31;8.10;62.30
82183;DHT22;71763;52.220;13.000;2023-11-18T13:13:57;8.10;62.30
82183;DHT22;71763;52.220;13.000;2023-11-18T13:16:24;8.20;62.30
82183;DHT22;71763;52.220;13.000;2023-11-18T13:18:50;8.20;62.40
82183;DHT22;71763;52.220;13.000;2023-11-18T13:21:18;8.20;62.40
82183;DHT22;71763;52.220;13.000;2023-11-18T13:23:48;8.20;62.30
82183;DHT22;71763;52.220;13.000;2023-11-18T13:26:18;8.20;62.30
82183;DHT22;71763;52.220;13.000;2023-11-18T13:28:48;8.20;62.30
82183;DHT22;71763;52.220;13.000;2023-11-18T13:31:17;8.20;62.30
82183;DHT22;71763;52.220;13.000;2023-11-18T13:33:43;8.10;62.30
82183;DHT22;71763;52.220;13.000;2023-11-18T13:36:10;8.10;62.30
82183;DHT22;71763;52.220;13.000;2023-11-18T13:38:36;8.00;62.20
82183;DHT22;71763;52.220;13.000;2023-11-18T13:41:03;8.00;62.20
82183;DHT22;71763;52.220;13.000;2023-11-18T13:43:45;7.90;62.10
82183;DHT22;71763;52.220;13.000;2023-11-18T13:46:18;7.90;62.10
82183;DHT22;71763;52.220;13.000;2023-11-18T13:48:47;7.90;62.10
82183;DHT22;71763;52.220;13.000;2023-11-18T13:51:15;7.80;62.00
82183;DHT22;71763;52.220;13.000;2023-11-18T13:53:42;7.80;62.10
82183;DHT22;71763;52.220;13.000;2023-11-18T13:56:12;7.80;62.20
82183;DHT22;71763;52.220;13.000;2023-11-18T13:58:39;7.70;62.00
82183;DHT22;71763;52.220;13.000;2023-11-18T14:01:06;7.70;61.90
82183;DHT22;71763;52.220;13.000;2023-11-18T14:03:34;7.70;61.90
82183;DHT22;71763;52.220;13.000;2023-11-18T14:06:02;7.70;62.20
82183;DHT22;71763;52.220;13.000;2023-11-18T14:08:29;7.60;61.90
82183;DHT22;71763;52.220;13.000;2023-11-18T14:10:55;7.60;61.80
82183;DHT22;71763;52.220;13.000;2023-11-18T14:13:21;7.60;61.80
82183;DHT22;71763;52.220;13.000;2023-11-18T14:15:48;7.60;61.80
82183;DHT22;71763;52.220;13.000;2023-11-18T14:18:13;7.60;61.80
82183;DHT22;71763;52.220;13.000;2023-11-18T14:20:40;7.60;61.80
82183;DHT22;71763;52.220;13.000;2023-11-18T14:23:05;7.60;61.90
82183;DHT22;71763;52.220;13.000;2023-11-18T14:25:34;7.50;61.80
82183;DHT22;71763;52.220;13.000;2023-11-18T14:28:00;7.50;61.80
82183;DHT22;71763;52.220;13.000;2023-11-18T14:30:27;7.50;61.80
82183;DHT22;71763;52.220;13.000;2023-11-18T14:32:53;7.40;62.10
82183;DHT22;71763;52.220;13.000;2023-11-18T14:35:19;7.40;62.40
82183;DHT22;71763;52.220;13.000;2023-11-18T14:37:45;7.30;62.40
82183;DHT22;71763;52.220;13.000;2023-11-18T14:40:15;7.20;62.90
82183;DHT22;71763;52.220;13.000;2023-11-18T14:42:42;7.10;63.10
82183;DHT22;71763;52.220;13.000;2023-11-18T14:45:09;7.00;62.80
82183;DHT22;71763;52.220;13.000;2023-11-18T14:47:34;6.90;63.20
82183;DHT22;71763;52.220;13.000;2023-11-18T14:50:00;6.80;63.40
82183;DHT22;71763;52.220;13.000;2023-11-18T14:52:28;6.70;63.70
82183;DHT22;71763;52.220;13.000;2023-11-18T14:54:53;6.60;63.40
82183;DHT22;71763;52.220;13.000;2023-11-18T14:57:19;6.60;63.90
82183;DHT22;71763;52.220;13.000;2023-11-18T14:59:44;6.50;63.80
82183;DHT22;71763;52.220;13.000;2023-11-18T15:02:10;6.40;63.80
82183;DHT22;71763;52.220;13.000;2023-11-18T15:04:36;6.30;63.80
82183;DHT22;71763;52.220;13.000;2023-11-18T15:07:02;6.30;63.50
82183;DHT22;71763;52.220;13.000;2023-11-18T15:09:27;6.20;63.90
82183;DHT22;71763;52.220;13.000;2023-11-18T15:11:57;6.10;64.00
82183;DHT22;71763;52.220;13.000;2023-11-18T15:14:23;6.00;63.60
82183;DHT22;71763;52.220;13.000;2023-11-18T15:16:50;6.00;64.10
82183;DHT22;71763;52.220;13.000;2023-11-18T15:19:16;5.90;64.00
82183;DHT22;71763;52.220;13.000;2023-11-18T15:21:41;5.80;64.00
82183;DHT22;71763;52.220;13.000;2023-11-18T15:24:07;5.70;64.00
82183;DHT22;71763;52.220;13.000;2023-11-18T15:26:34;5.60;64.00
82183;DHT22;71763;52.220;13.000;2023-11-18T15:29:01;5.60;63.90
82183;DHT22;71763;52.220;13.000;2023-11-18T15:31:28;5.50;63.90
82183;DHT22;71763;52.220;13.000;2023-11-18T15:33:55;5.50;64.00
82183;DHT22;71763;52.220;13.000;2023-11-18T15:36:22;5.40;64.00
82183;DHT22;71763;52.220;13.000;2023-11-18T15:38:48;5.30;63.90
82183;DHT22;71763;52.220;13.000;2023-11-18T15:41:13;5.30;64.00
82183;DHT22;71763;52.220;13.000;2023-11-18T15:43:38;5.20;64.00
82183;DHT22;71763;52.220;13.000;2023-11-18T15:46:04;5.20;64.00
82183;DHT22;71763;52.220;13.000;2023-11-18T15:48:32;5.20;64.10
82183;DHT22;71763;52.220;13.000;2023-11-18T15:50:57;5.10;64.10
82183;DHT22;71763;52.220;13.000;2023-11-18T15:53:24;5.00;64.10
82183;DHT22;71763;52.220;13.000;2023-11-18T15:55:50;5.00;64.10
82183;DHT22;71763;52.220;13.000;2023-11-18T15:58:17;5.00;64.10
82183;DHT22;71763;52.220;13.000;2023-11-18T16:00:44;4.90;64.00